sensor_id;sensor_type;location;lat;lon;timestamp;P1;durP1;ratioP1;P2;durP2;ratioP2
32200;SDS011;18701;45.588;5.288;2023-05-07T00:00:40;0.93;;;0.13;;
32200;SDS011;18701;45.588;5.288;2023-05-07T00:03:07;2.17;;;0.10;;
32200;SDS011;18701;45.588;5.288;2023-05-07T00:05:33;1.35;;;0.20;;
32200;SDS011;18701;45.588;5.288;2023-05-07T00:07:58;1.58;;;0.30;;
32200;SDS011;18701;45.588;5.288;2023-05-07T00:10:24;4.38;;;0.20;;
32200;SDS011;18701;45.588;5.288;2023-05-07T00:12:50;2.53;;;0.20;;
32200;SDS011;18701;45.588;5.288;2023-05-07T00:15:16;1.05;;;0.30;;
32200;SDS011;18701;45.588;5.288;2023-05-07T00:17:41;0.38;;;0.22;;
32200;SDS011;18701;45.588;5.288;2023-05-07T00:20:07;0.90;;;0.13;;
32200;SDS011;18701;45.588;5.288;2023-05-07T00:22:33;4.68;;;0.20;;
32200;SDS011;18701;45.588;5.288;2023-05-07T00:24:59;4.53;;;0.20;;
32200;SDS011;18701;45.588;5.288;2023-05-07T00:27:28;0.82;;;0.20;;
32200;SDS011;18701;45.588;5.288;2023-05-07T00:29:53;1.88;;;0.32;;
32200;SDS011;18701;45.588;5.288;2023-05-07T00:32:19;1.55;;;0.10;;
32200;SDS011;18701;45.588;5.288;2023-05-07T00:34:44;2.47;;;0.20;;
32200;SDS011;18701;45.588;5.288;2023-05-07T00:37:10;0.95;;;0.20;;
32200;SDS011;18701;45.588;5.288;2023-05-07T00:39:36;0.43;;;0.10;;
32200;SDS011;18701;45.588;5.288;2023-05-07T00:42:02;1.20;;;0.10;;
32200;SDS011;18701;45.588;5.288;2023-05-07T00:44:28;0.52;;;0.10;;
32200;SDS011;18701;45.588;5.288;2023-05-07T00:46:54;1.85;;;0.22;;
32200;SDS011;18701;45.588;5.288;2023-05-07T00:49:22;1.95;;;0.10;;
32200;SDS011;18701;45.588;5.288;2023-05-07T00:51:56;1.83;;;0.00;;
32200;SDS011;18701;45.588;5.288;2023-05-07T00:54:22;1.50;;;0.10;;
32200;SDS011;18701;45.588;5.288;2023-05-07T00:56:48;0.70;;;0.10;;
32200;SDS011;18701;45.588;5.288;2023-05-07T00:59:13;2.85;;;0.13;;
32200;SDS011;18701;45.588;5.288;2023-05-07T01:01:39;0.50;;;0.10;;
32200;SDS011;18701;45.588;5.288;2023-05-07T01:04:05;1.02;;;0.15;;
32200;SDS011;18701;45.588;5.288;2023-05-07T01:06:30;2.00;;;0.13;;
32200;SDS011;18701;45.588;5.288;2023-05-07T01:08:57;3.50;;;0.25;;
32200;SDS011;18701;45.588;5.288;2023-05-07T01:11:24;1.55;;;0.20;;
32200;SDS011;18701;45.588;5.288;2023-05-07T01:13:50;0.88;;;0.10;;
32200;SDS011;18701;45.588;5.288;2023-05-07T01:16:17;1.05;;;0.10;;
32200;SDS011;18701;45.588;5.288;2023-05-07T01:18:42;1.55;;;0.20;;
32200;SDS011;18701;45.588;5.288;2023-05-07T01:21:09;0.75;;;0.10;;
32200;SDS011;18701;45.588;5.288;2023-05-07T01:23:36;1.48;;;0.15;;
32200;SDS011;18701;45.588;5.288;2023-05-07T01:26:03;2.53;;;0.10;;
32200;SDS011;18701;45.588;5.288;2023-05-07T01:28:28;0.40;;;0.10;;
32200;SDS011;18701;45.588;5.288;2023-05-07T01:30:54;1.73;;;0.20;;
32200;SDS011;18701;45.588;5.288;2023-05-07T01:33:25;1.65;;;0.10;;
32200;SDS011;18701;45.588;5.288;2023-05-07T01:35:53;2.10;;;0.13;;
32200;SDS011;18701;45.588;5.288;2023-05-07T01:38:20;1.60;;;0.20;;
32200;SDS011;18701;45.588;5.288;2023-05-07T01:40:47;2.28;;;0.13;;
32200;SDS011;18701;45.588;5.288;2023-05-07T01:43:13;1.52;;;0.15;;
32200;SDS011;18701;45.588;5.288;2023-05-07T01:45:39;1.05;;;0.20;;
32200;SDS011;18701;45.588;5.288;2023-05-07T01:48:05;2.53;;;0.28;;
32200;SDS011;18701;45.588;5.288;2023-05-07T01:50:33;0.95;;;0.30;;
32200;SDS011;18701;45.588;5.288;2023-05-07T01:52:59;1.90;;;0.10;;
32200;SDS011;18701;45.588;5.288;2023-05-07T01:55:27;3.45;;;0.10;;
32200;SDS011;18701;45.588;5.288;2023-05-07T01:57:53;0.95;;;0.10;;
32200;SDS011;18701;45.588;5.288;2023-05-07T02:00:18;1.60;;;0.20;;
32200;SDS011;18701;45.588;5.288;2023-05-07T02:02:44;0.70;;;0.10;;
32200;SDS011;18701;45.588;5.288;2023-05-07T02:05:10;0.30;;;0.10;;
32200;SDS011;18701;45.588;5.288;2023-05-07T02:07:36;0.70;;;0.15;;
32200;SDS011;18701;45.588;5.288;2023-05-07T02:10:01;1.27;;;0.10;;
32200;SDS011;18701;45.588;5.288;2023-05-07T02:12:27;0.85;;;0.20;;
32200;SDS011;18701;45.588;5.288;2023-05-07T02:14:53;1.48;;;0.10;;
32200;SDS011;18701;45.588;5.288;2023-05-07T02:17:19;3.42;;;0.20;;
32200;SDS011;18701;45.588;5.288;2023-05-07T02:19:45;1.98;;;0.30;;
32200;SDS011;18701;45.588;5.288;2023-05-07T02:22:10;0.43;;;0.10;;
32200;SDS011;18701;45.588;5.288;2023-05-07T02:24:36;1.13;;;0.10;;
32200;SDS011;18701;45.588;5.288;2023-05-07T02:27:01;5.97;;;0.20;;
32200;SDS011;18701;45.588;5.288;2023-05-07T02:29:28;2.80;;;0.20;;
32200;SDS011;18701;45.588;5.288;2023-05-07T02:31:54;1.65;;;0.10;;
32200;SDS011;18701;45.588;5.288;2023-05-07T02:34:20;4.60;;;0.20;;
32200;SDS011;18701;45.588;5.288;2023-05-07T02:36:46;2.33;;;0.10;;
32200;SDS011;18701;45.588;5.288;2023-05-07T02:39:12;2.95;;;0.10;;
32200;SDS011;18701;45.588;5.288;2023-05-07T02:41:38;0.55;;;0.17;;
32200;SDS011;18701;45.588;5.288;2023-05-07T02:44:03;2.13;;;0.30;;
32200;SDS011;18701;45.588;5.288;2023-05-07T02:46:29;3.88;;;0.10;;
32200;SDS011;18701;45.588;5.288;2023-05-07T02:48:55;2.05;;;0.13;;
32200;SDS011;18701;45.588;5.288;2023-05-07T02:51:21;2.95;;;0.22;;
32200;SDS011;18701;45.588;5.288;2023-05-07T02:53:48;0.88;;;0.20;;
32200;SDS011;18701;45.588;5.288;2023-05-07T02:56:13;4.85;;;0.40;;
32200;SDS011;18701;45.588;5.288;2023-05-07T02:58:39;0.30;;;0.10;;
32200;SDS011;18701;45.588;5.288;2023-05-07T03:01:05;2.38;;;0.10;;
32200;SDS011;18701;45.588;5.288;2023-05-07T03:03:31;0.80;;;0.10;;
32200;SDS011;18701;45.588;5.288;2023-05-07T03:05:57;1.88;;;0.30;;
32200;SDS011;18701;45.588;5.288;2023-05-07T03:08:22;4.80;;;0.17;;
32200;SDS011;18701;45.588;5.288;2023-05-07T03:10:49;2.72;;;0.20;;
32200;SDS011;18701;45.588;5.288;2023-05-07T03:13:14;1.98;;;0.10;;
32200;SDS011;18701;45.588;5.288;2023-05-07T03:15:40;0.98;;;0.30;;
32200;SDS011;18701;45.588;5.288;2023-05-07T03:18:05;1.33;;;0.40;;
32200;SDS011;18701;45.588;5.288;2023-05-07T03:20:31;0.93;;;0.28;;
32200;SDS011;18701;45.588;5.288;2023-05-07T03:22:57;1.02;;;0.13;;
32200;SDS011;18701;45.588;5.288;2023-05-07T03:25:23;5.63;;;0.20;;
32200;SDS011;18701;45.588;5.288;2023-05-07T03:27:48;0.65;;;0.20;;
32200;SDS011;18701;45.588;5.288;2023-05-07T03:30:14;1.25;;;0.20;;
32200;SDS011;18701;45.588;5.288;2023-05-07T03:32:40;1.05;;;0.38;;
32200;SDS011;18701;45.588;5.288;2023-05-07T03:35:05;5.40;;;0.50;;
32200;SDS011;18701;45.588;5.288;2023-05-07T03:37:31;2.42;;;0.20;;
32200;SDS011;18701;45.588;5.288;2023-05-07T03:39:57;1.35;;;0.30;;
32200;SDS011;18701;45.588;5.288;2023-05-07T03:42:23;0.50;;;0.20;;
32200;SDS011;18701;45.588;5.288;2023-05-07T03:44:49;2.03;;;0.30;;
32200;SDS011;18701;45.588;5.288;2023-05-07T03:47:14;6.72;;;0.20;;
32200;SDS011;18701;45.588;5.288;2023-05-07T03:49:40;1.13;;;0.30;;
32200;SDS011;18701;45.588;5.288;2023-05-07T03:52:06;0.30;;;0.10;;
32200;SDS011;18701;45.588;5.288;2023-05-07T03:54:31;1.90;;;0.30;;
32200;SDS011;18701;45.588;5.288;2023-05-07T03:56:57;3.47;;;0.47;;
32200;SDS011;18701;45.588;5.288;2023-05-07T03:59:23;3.30;;;0.20;;
32200;SDS011;18701;45.588;5.288;2023-05-07T04:01:49;7.85;;;0.50;;
32200;SDS011;18701;45.588;5.288;2023-05-07T04:04:15;2.63;;;0.30;;
32200;SDS011;18701;45.588;5.288;2023-05-07T04:06:40;1.05;;;0.17;;
32200;SDS011;18701;45.588;5.288;2023-05-07T04:09:06;1.40;;;0.40;;
32200;SDS011;18701;45.588;5.288;2023-05-07T04:11:32;1.10;;;0.20;;
32200;SDS011;18701;45.588;5.288;2023-05-07T04:13:58;1.02;;;0.20;;
32200;SDS011;18701;45.588;5.288;2023-05-07T04:16:23;1.95;;;0.20;;
32200;SDS011;18701;45.588;5.288;2023-05-07T04:18:49;4.57;;;0.22;;
32200;SDS011;18701;45.588;5.288;2023-05-07T04:21:15;2.55;;;0.10;;
32200;SDS011;18701;45.588;5.288;2023-05-07T04:23:41;1.50;;;0.20;;
32200;SDS011;18701;45.588;5.288;2023-05-07T04:26:07;4.05;;;0.35;;
32200;SDS011;18701;45.588;5.288;2023-05-07T04:28:33;8.38;;;0.70;;
32200;SDS011;18701;45.588;5.288;2023-05-07T04:31:00;1.98;;;0.22;;
32200;SDS011;18701;45.588;5.288;2023-05-07T04:33:25;2.85;;;0.20;;
32200;SDS011;18701;45.588;5.288;2023-05-07T04:35:51;2.00;;;0.30;;
32200;SDS011;18701;45.588;5.288;2023-05-07T04:38:17;3.15;;;0.28;;
32200;SDS011;18701;45.588;5.288;2023-05-07T04:40:43;2.10;;;0.20;;
32200;SDS011;18701;45.588;5.288;2023-05-07T04:43:09;2.25;;;0.30;;
32200;SDS011;18701;45.588;5.288;2023-05-07T04:45:35;3.58;;;0.20;;
32200;SDS011;18701;45.588;5.288;2023-05-07T04:48:01;1.58;;;0.40;;
32200;SDS011;18701;45.588;5.288;2023-05-07T04:50:27;2.45;;;0.30;;
32200;SDS011;18701;45.588;5.288;2023-05-07T04:52:52;0.98;;;0.30;;
32200;SDS011;18701;45.588;5.288;2023-05-07T04:55:18;5.47;;;0.30;;
32200;SDS011;18701;45.588;5.288;2023-05-07T04:57:44;0.50;;;0.17;;
32200;SDS011;18701;45.588;5.288;2023-05-07T05:00:10;2.33;;;0.20;;
32200;SDS011;18701;45.588;5.288;2023-05-07T05:02:39;0.73;;;0.20;;
32200;SDS011;18701;45.588;5.288;2023-05-07T05:05:05;3.65;;;0.30;;
32200;SDS011;18701;45.588;5.288;2023-05-07T05:07:31;3.00;;;0.30;;
32200;SDS011;18701;45.588;5.288;2023-05-07T05:09:56;3.00;;;0.20;;
32200;SDS011;18701;45.588;5.288;2023-05-07T05:12:22;6.13;;;0.40;;
32200;SDS011;18701;45.588;5.288;2023-05-07T05:14:48;0.35;;;0.30;;
32200;SDS011;18701;45.588;5.288;2023-05-07T05:17:13;3.35;;;0.40;;
32200;SDS011;18701;45.588;5.288;2023-05-07T05:19:39;2.20;;;0.20;;
32200;SDS011;18701;45.588;5.288;2023-05-07T05:22:05;2.15;;;0.30;;
32200;SDS011;18701;45.588;5.288;2023-05-07T05:24:31;1.15;;;0.20;;
32200;SDS011;18701;45.588;5.288;2023-05-07T05:26:56;3.33;;;0.40;;
32200;SDS011;18701;45.588;5.288;2023-05-07T05:29:22;1.33;;;0.30;;
32200;SDS011;18701;45.588;5.288;2023-05-07T05:31:48;2.38;;;0.30;;
32200;SDS011;18701;45.588;5.288;2023-05-07T05:34:13;1.75;;;0.20;;
32200;SDS011;18701;45.588;5.288;2023-05-07T05:36:39;0.90;;;0.30;;
32200;SDS011;18701;45.588;5.288;2023-05-07T05:39:04;0.85;;;0.30;;
32200;SDS011;18701;45.588;5.288;2023-05-07T05:41:31;4.00;;;0.32;;
32200;SDS011;18701;45.588;5.288;2023-05-07T05:43:57;1.35;;;0.35;;
32200;SDS011;18701;45.588;5.288;2023-05-07T05:46:23;1.70;;;0.35;;
32200;SDS011;18701;45.588;5.288;2023-05-07T05:48:49;5.90;;;0.85;;
32200;SDS011;18701;45.588;5.288;2023-05-07T05:51:14;0.93;;;0.20;;
32200;SDS011;18701;45.588;5.288;2023-05-07T05:53:40;2.97;;;0.40;;
32200;SDS011;18701;45.588;5.288;2023-05-07T05:56:06;1.38;;;0.43;;
32200;SDS011;18701;45.588;5.288;2023-05-07T05:58:31;1.27;;;0.22;;
32200;SDS011;18701;45.588;5.288;2023-05-07T06:00:57;4.25;;;0.40;;
32200;SDS011;18701;45.588;5.288;2023-05-07T06:03:23;2.00;;;0.22;;
32200;SDS011;18701;45.588;5.288;2023-05-07T06:05:49;5.35;;;0.40;;
32200;SDS011;18701;45.588;5.288;2023-05-07T06:08:15;1.52;;;0.57;;
32200;SDS011;18701;45.588;5.288;2023-05-07T06:10:40;1.13;;;0.30;;
32200;SDS011;18701;45.588;5.288;2023-05-07T06:13:06;3.85;;;0.40;;
32200;SDS011;18701;45.588;5.288;2023-05-07T06:15:32;0.88;;;0.20;;
32200;SDS011;18701;45.588;5.288;2023-05-07T06:17:58;1.27;;;0.20;;
32200;SDS011;18701;45.588;5.288;2023-05-07T06:20:23;2.05;;;0.20;;
32200;SDS011;18701;45.588;5.288;2023-05-07T06:22:49;1.73;;;0.30;;
32200;SDS011;18701;45.588;5.288;2023-05-07T06:25:15;2.97;;;0.20;;
32200;SDS011;18701;45.588;5.288;2023-05-07T06:27:40;3.17;;;0.40;;
32200;SDS011;18701;45.588;5.288;2023-05-07T06:30:06;0.40;;;0.20;;
32200;SDS011;18701;45.588;5.288;2023-05-07T06:32:32;1.27;;;0.40;;
32200;SDS011;18701;45.588;5.288;2023-05-07T06:34:58;3.50;;;0.22;;
32200;SDS011;18701;45.588;5.288;2023-05-07T06:37:24;2.10;;;0.30;;
32200;SDS011;18701;45.588;5.288;2023-05-07T06:39:50;1.13;;;0.20;;
32200;SDS011;18701;45.588;5.288;2023-05-07T06:42:16;1.10;;;0.20;;
32200;SDS011;18701;45.588;5.288;2023-05-07T06:44:41;0.90;;;0.25;;
32200;SDS011;18701;45.588;5.288;2023-05-07T06:47:07;3.58;;;0.20;;
32200;SDS011;18701;45.588;5.288;2023-05-07T06:49:32;0.75;;;0.30;;
32200;SDS011;18701;45.588;5.288;2023-05-07T06:51:58;5.07;;;0.65;;
32200;SDS011;18701;45.588;5.288;2023-05-07T06:54:24;1.00;;;0.20;;
32200;SDS011;18701;45.588;5.288;2023-05-07T06:56:50;1.55;;;0.20;;
32200;SDS011;18701;45.588;5.288;2023-05-07T06:59:15;2.90;;;0.15;;
32200;SDS011;18701;45.588;5.288;2023-05-07T07:01:41;1.10;;;0.10;;
32200;SDS011;18701;45.588;5.288;2023-05-07T07:04:07;0.70;;;0.20;;
32200;SDS011;18701;45.588;5.288;2023-05-07T07:06:32;0.40;;;0.10;;
32200;SDS011;18701;45.588;5.288;2023-05-07T07:08:58;1.20;;;0.20;;
32200;SDS011;18701;45.588;5.288;2023-05-07T07:11:24;1.05;;;0.20;;
32200;SDS011;18701;45.588;5.288;2023-05-07T07:13:50;4.32;;;0.20;;
32200;SDS011;18701;45.588;5.288;2023-05-07T07:16:16;1.10;;;0.32;;
32200;SDS011;18701;45.588;5.288;2023-05-07T07:18:42;4.53;;;0.20;;
32200;SDS011;18701;45.588;5.288;2023-05-07T07:21:07;1.73;;;0.20;;
32200;SDS011;18701;45.588;5.288;2023-05-07T07:23:33;0.93;;;0.20;;
32200;SDS011;18701;45.588;5.288;2023-05-07T07:25:58;0.90;;;0.20;;
32200;SDS011;18701;45.588;5.288;2023-05-07T07:28:27;3.17;;;0.50;;
32200;SDS011;18701;45.588;5.288;2023-05-07T07:30:52;3.88;;;0.15;;
32200;SDS011;18701;45.588;5.288;2023-05-07T07:33:18;2.92;;;0.20;;
32200;SDS011;18701;45.588;5.288;2023-05-07T07:35:43;1.45;;;0.20;;
32200;SDS011;18701;45.588;5.288;2023-05-07T07:38:09;0.57;;;0.20;;
32200;SDS011;18701;45.588;5.288;2023-05-07T07:40:35;5.95;;;0.30;;
32200;SDS011;18701;45.588;5.288;2023-05-07T07:43:01;0.38;;;0.20;;
32200;SDS011;18701;45.588;5.288;2023-05-07T07:45:26;2.25;;;0.30;;
32200;SDS011;18701;45.588;5.288;2023-05-07T07:47:52;2.60;;;0.32;;
32200;SDS011;18701;45.588;5.288;2023-05-07T07:50:18;1.85;;;0.80;;
32200;SDS011;18701;45.588;5.288;2023-05-07T07:52:43;2.88;;;0.40;;
32200;SDS011;18701;45.588;5.288;2023-05-07T07:55:09;1.23;;;0.40;;
32200;SDS011;18701;45.588;5.288;2023-05-07T07:57:35;2.70;;;0.30;;
32200;SDS011;18701;45.588;5.288;2023-05-07T08:00:01;1.80;;;0.22;;
32200;SDS011;18701;45.588;5.288;2023-05-07T08:02:27;3.40;;;0.60;;
32200;SDS011;18701;45.588;5.288;2023-05-07T08:04:53;2.92;;;0.20;;
32200;SDS011;18701;45.588;5.288;2023-05-07T08:07:18;1.27;;;0.25;;
32200;SDS011;18701;45.588;5.288;2023-05-07T08:09:45;1.58;;;0.30;;
32200;SDS011;18701;45.588;5.288;2023-05-07T08:12:11;9.35;;;0.60;;
32200;SDS011;18701;45.588;5.288;2023-05-07T08:14:37;1.67;;;0.30;;
32200;SDS011;18701;45.588;5.288;2023-05-07T08:17:03;0.88;;;0.40;;
32200;SDS011;18701;45.588;5.288;2023-05-07T08:19:29;1.75;;;0.40;;
32200;SDS011;18701;45.588;5.288;2023-05-07T08:21:55;4.60;;;0.20;;
32200;SDS011;18701;45.588;5.288;2023-05-07T08:24:20;1.70;;;0.32;;
32200;SDS011;18701;45.588;5.288;2023-05-07T08:26:46;1.75;;;0.35;;
32200;SDS011;18701;45.588;5.288;2023-05-07T08:29:12;2.40;;;0.20;;
32200;SDS011;18701;45.588;5.288;2023-05-07T08:31:37;1.08;;;0.30;;
32200;SDS011;18701;45.588;5.288;2023-05-07T08:34:06;5.43;;;0.30;;
32200;SDS011;18701;45.588;5.288;2023-05-07T08:36:31;4.60;;;0.38;;
32200;SDS011;18701;45.588;5.288;2023-05-07T08:38:57;5.95;;;0.40;;
32200;SDS011;18701;45.588;5.288;2023-05-07T08:41:24;2.92;;;0.40;;
32200;SDS011;18701;45.588;5.288;2023-05-07T08:43:50;1.83;;;0.50;;
32200;SDS011;18701;45.588;5.288;2023-05-07T08:46:17;3.22;;;0.50;;
32200;SDS011;18701;45.588;5.288;2023-05-07T08:48:50;3.50;;;0.40;;
32200;SDS011;18701;45.588;5.288;2023-05-07T08:51:17;0.80;;;0.20;;
32200;SDS011;18701;45.588;5.288;2023-05-07T08:53:44;2.15;;;0.30;;
32200;SDS011;18701;45.588;5.288;2023-05-07T08:56:13;1.02;;;0.22;;
32200;SDS011;18701;45.588;5.288;2023-05-07T08:58:40;1.35;;;0.32;;
32200;SDS011;18701;45.588;5.288;2023-05-07T09:01:07;2.35;;;0.30;;
32200;SDS011;18701;45.588;5.288;2023-05-07T09:03:45;2.53;;;0.38;;
32200;SDS011;18701;45.588;5.288;2023-05-07T09:06:11;8.07;;;0.40;;
32200;SDS011;18701;45.588;5.288;2023-05-07T09:08:37;0.88;;;0.30;;
32200;SDS011;18701;45.588;5.288;2023-05-07T09:11:03;4.15;;;0.98;;
32200;SDS011;18701;45.588;5.288;2023-05-07T09:13:29;1.95;;;0.38;;
32200;SDS011;18701;45.588;5.288;2023-05-07T09:15:55;5.05;;;0.30;;
32200;SDS011;18701;45.588;5.288;2023-05-07T09:18:21;4.10;;;0.38;;
32200;SDS011;18701;45.588;5.288;2023-05-07T09:20:48;5.40;;;0.40;;
32200;SDS011;18701;45.588;5.288;2023-05-07T09:23:14;2.65;;;0.30;;
32200;SDS011;18701;45.588;5.288;2023-05-07T09:25:40;1.95;;;0.25;;
32200;SDS011;18701;45.588;5.288;2023-05-07T09:28:05;2.20;;;0.40;;
32200;SDS011;18701;45.588;5.288;2023-05-07T09:30:32;1.00;;;0.30;;
32200;SDS011;18701;45.588;5.288;2023-05-07T09:32:59;1.02;;;0.20;;
32200;SDS011;18701;45.588;5.288;2023-05-07T09:35:26;3.78;;;0.52;;
32200;SDS011;18701;45.588;5.288;2023-05-07T09:37:55;1.17;;;0.40;;
32200;SDS011;18701;45.588;5.288;2023-05-07T09:40:22;1.98;;;0.20;;
32200;SDS011;18701;45.588;5.288;2023-05-07T09:42:49;1.30;;;0.40;;
32200;SDS011;18701;45.588;5.288;2023-05-07T09:45:27;3.08;;;0.30;;
32200;SDS011;18701;45.588;5.288;2023-05-07T09:47:57;5.88;;;0.52;;
32200;SDS011;18701;45.588;5.288;2023-05-07T09:50:35;1.33;;;0.30;;
32200;SDS011;18701;45.588;5.288;2023-05-07T09:53:01;2.50;;;0.30;;
32200;SDS011;18701;45.588;5.288;2023-05-07T09:55:28;1.30;;;0.40;;
32200;SDS011;18701;45.588;5.288;2023-05-07T09:57:55;1.10;;;0.30;;
32200;SDS011;18701;45.588;5.288;2023-05-07T10:00:22;3.80;;;1.00;;
32200;SDS011;18701;45.588;5.288;2023-05-07T10:02:49;3.13;;;1.10;;
32200;SDS011;18701;45.588;5.288;2023-05-07T10:05:17;4.45;;;1.58;;
32200;SDS011;18701;45.588;5.288;2023-05-07T10:07:45;1.80;;;0.43;;
32200;SDS011;18701;45.588;5.288;2023-05-07T10:10:11;1.85;;;0.30;;
32200;SDS011;18701;45.588;5.288;2023-05-07T10:12:37;3.53;;;0.50;;
32200;SDS011;18701;45.588;5.288;2023-05-07T10:15:06;2.15;;;0.50;;
32200;SDS011;18701;45.588;5.288;2023-05-07T10:17:34;1.27;;;0.30;;
32200;SDS011;18701;45.588;5.288;2023-05-07T10:20:04;1.98;;;0.50;;
32200;SDS011;18701;45.588;5.288;2023-05-07T10:22:32;3.13;;;0.88;;
32200;SDS011;18701;45.588;5.288;2023-05-07T10:25:06;1.52;;;0.30;;
32200;SDS011;18701;45.588;5.288;2023-05-07T10:27:39;2.17;;;0.60;;
32200;SDS011;18701;45.588;5.288;2023-05-07T10:30:20;2.50;;;0.50;;
32200;SDS011;18701;45.588;5.288;2023-05-07T10:32:49;1.10;;;0.65;;
32200;SDS011;18701;45.588;5.288;2023-05-07T10:35:25;6.45;;;1.35;;
32200;SDS011;18701;45.588;5.288;2023-05-07T10:37:54;1.92;;;0.68;;
32200;SDS011;18701;45.588;5.288;2023-05-07T10:40:20;2.78;;;0.68;;
32200;SDS011;18701;45.588;5.288;2023-05-07T10:45:22;2.50;;;0.63;;
32200;SDS011;18701;45.588;5.288;2023-05-07T10:50:33;7.50;;;0.70;;
32200;SDS011;18701;45.588;5.288;2023-05-07T10:53:32;3.85;;;0.80;;
32200;SDS011;18701;45.588;5.288;2023-05-07T10:58:42;4.60;;;0.77;;
32200;SDS011;18701;45.588;5.288;2023-05-07T11:01:08;1.85;;;0.40;;
32200;SDS011;18701;45.588;5.288;2023-05-07T11:03:35;2.25;;;0.55;;
32200;SDS011;18701;45.588;5.288;2023-05-07T11:06:18;1.77;;;0.47;;
32200;SDS011;18701;45.588;5.288;2023-05-07T11:11:18;4.25;;;0.50;;
32200;SDS011;18701;45.588;5.288;2023-05-07T11:13:47;3.65;;;0.93;;
32200;SDS011;18701;45.588;5.288;2023-05-07T11:16:18;4.70;;;1.15;;
32200;SDS011;18701;45.588;5.288;2023-05-07T11:18:48;3.25;;;0.60;;
32200;SDS011;18701;45.588;5.288;2023-05-07T11:21:39;1.08;;;0.50;;
32200;SDS011;18701;45.588;5.288;2023-05-07T11:24:05;1.70;;;0.40;;
32200;SDS011;18701;45.588;5.288;2023-05-07T11:26:46;2.08;;;0.50;;
32200;SDS011;18701;45.588;5.288;2023-05-07T11:29:19;4.13;;;0.55;;
32200;SDS011;18701;45.588;5.288;2023-05-07T11:31:50;3.58;;;0.90;;
32200;SDS011;18701;45.588;5.288;2023-05-07T11:34:20;1.70;;;0.45;;
32200;SDS011;18701;45.588;5.288;2023-05-07T11:36:47;1.58;;;0.80;;
32200;SDS011;18701;45.588;5.288;2023-05-07T11:39:24;1.88;;;0.55;;
32200;SDS011;18701;45.588;5.288;2023-05-07T11:41:58;1.55;;;0.50;;
32200;SDS011;18701;45.588;5.288;2023-05-07T11:44:43;1.38;;;0.50;;
32200;SDS011;18701;45.588;5.288;2023-05-07T11:47:11;3.10;;;0.60;;
32200;SDS011;18701;45.588;5.288;2023-05-07T11:49:41;2.65;;;0.40;;
32200;SDS011;18701;45.588;5.288;2023-05-07T11:52:07;1.65;;;0.65;;
32200;SDS011;18701;45.588;5.288;2023-05-07T11:54:36;3.35;;;0.77;;
32200;SDS011;18701;45.588;5.288;2023-05-07T11:57:02;2.78;;;0.95;;
32200;SDS011;18701;45.588;5.288;2023-05-07T11:59:28;1.92;;;0.95;;
32200;SDS011;18701;45.588;5.288;2023-05-07T12:01:57;4.53;;;0.80;;
32200;SDS011;18701;45.588;5.288;2023-05-07T12:04:24;2.15;;;0.68;;
32200;SDS011;18701;45.588;5.288;2023-05-07T12:06:53;2.10;;;0.80;;
32200;SDS011;18701;45.588;5.288;2023-05-07T12:09:20;3.22;;;1.08;;
32200;SDS011;18701;45.588;5.288;2023-05-07T12:11:46;4.80;;;0.80;;
32200;SDS011;18701;45.588;5.288;2023-05-07T12:14:12;3.10;;;0.50;;
32200;SDS011;18701;45.588;5.288;2023-05-07T12:16:39;2.65;;;0.80;;
32200;SDS011;18701;45.588;5.288;2023-05-07T12:19:05;1.50;;;0.77;;
32200;SDS011;18701;45.588;5.288;2023-05-07T12:21:33;2.55;;;0.90;;
32200;SDS011;18701;45.588;5.288;2023-05-07T12:24:00;6.70;;;0.65;;
32200;SDS011;18701;45.588;5.288;2023-05-07T12:26:26;4.40;;;1.00;;
32200;SDS011;18701;45.588;5.288;2023-05-07T12:28:52;3.92;;;0.68;;
32200;SDS011;18701;45.588;5.288;2023-05-07T12:31:17;1.88;;;0.70;;
32200;SDS011;18701;45.588;5.288;2023-05-07T12:33:43;2.22;;;0.73;;
32200;SDS011;18701;45.588;5.288;2023-05-07T12:36:11;2.78;;;0.60;;
32200;SDS011;18701;45.588;5.288;2023-05-07T12:38:38;0.90;;;0.50;;
32200;SDS011;18701;45.588;5.288;2023-05-07T12:41:06;1.55;;;0.50;;
32200;SDS011;18701;45.588;5.288;2023-05-07T12:43:33;2.05;;;0.60;;
32200;SDS011;18701;45.588;5.288;2023-05-07T12:46:00;3.35;;;0.60;;
32200;SDS011;18701;45.588;5.288;2023-05-07T12:48:28;1.45;;;0.73;;
32200;SDS011;18701;45.588;5.288;2023-05-07T12:50:54;3.53;;;0.60;;
32200;SDS011;18701;45.588;5.288;2023-05-07T12:53:21;0.85;;;0.38;;
32200;SDS011;18701;45.588;5.288;2023-05-07T12:55:49;1.27;;;0.52;;
32200;SDS011;18701;45.588;5.288;2023-05-07T12:58:16;1.40;;;0.38;;
32200;SDS011;18701;45.588;5.288;2023-05-07T13:00:43;0.82;;;0.30;;
32200;SDS011;18701;45.588;5.288;2023-05-07T13:03:10;0.65;;;0.40;;
32200;SDS011;18701;45.588;5.288;2023-05-07T13:05:36;4.18;;;0.60;;
32200;SDS011;18701;45.588;5.288;2023-05-07T13:08:02;5.28;;;0.40;;
32200;SDS011;18701;45.588;5.288;2023-05-07T13:10:28;0.70;;;0.30;;
32200;SDS011;18701;45.588;5.288;2023-05-07T13:12:53;1.50;;;0.30;;
32200;SDS011;18701;45.588;5.288;2023-05-07T13:15:19;1.35;;;0.40;;
32200;SDS011;18701;45.588;5.288;2023-05-07T13:17:46;3.00;;;0.50;;
32200;SDS011;18701;45.588;5.288;2023-05-07T13:20:12;2.97;;;0.40;;
32200;SDS011;18701;45.588;5.288;2023-05-07T13:22:37;3.42;;;0.47;;
32200;SDS011;18701;45.588;5.288;2023-05-07T13:25:04;2.90;;;0.63;;
32200;SDS011;18701;45.588;5.288;2023-05-07T13:27:30;1.38;;;0.30;;
32200;SDS011;18701;45.588;5.288;2023-05-07T13:29:56;1.85;;;0.25;;
32200;SDS011;18701;45.588;5.288;2023-05-07T13:32:21;2.28;;;0.32;;
32200;SDS011;18701;45.588;5.288;2023-05-07T13:34:47;2.22;;;0.15;;
32200;SDS011;18701;45.588;5.288;2023-05-07T13:37:13;2.10;;;0.30;;
32200;SDS011;18701;45.588;5.288;2023-05-07T13:39:38;0.88;;;0.30;;
32200;SDS011;18701;45.588;5.288;2023-05-07T13:42:04;0.95;;;0.40;;
32200;SDS011;18701;45.588;5.288;2023-05-07T13:44:29;3.08;;;0.70;;
32200;SDS011;18701;45.588;5.288;2023-05-07T13:46:55;1.10;;;0.30;;
32200;SDS011;18701;45.588;5.288;2023-05-07T13:49:21;2.85;;;0.50;;
32200;SDS011;18701;45.588;5.288;2023-05-07T13:51:46;2.20;;;0.40;;
32200;SDS011;18701;45.588;5.288;2023-05-07T13:54:12;1.27;;;0.60;;
32200;SDS011;18701;45.588;5.288;2023-05-07T13:56:37;4.00;;;0.40;;
32200;SDS011;18701;45.588;5.288;2023-05-07T13:59:03;1.67;;;0.52;;
32200;SDS011;18701;45.588;5.288;2023-05-07T14:01:32;3.00;;;0.75;;
32200;SDS011;18701;45.588;5.288;2023-05-07T14:03:58;2.55;;;0.57;;
32200;SDS011;18701;45.588;5.288;2023-05-07T14:06:24;1.92;;;0.68;;
32200;SDS011;18701;45.588;5.288;2023-05-07T14:08:50;3.65;;;0.63;;
32200;SDS011;18701;45.588;5.288;2023-05-07T14:11:15;3.10;;;0.52;;
32200;SDS011;18701;45.588;5.288;2023-05-07T14:13:41;3.38;;;1.08;;
32200;SDS011;18701;45.588;5.288;2023-05-07T14:16:07;3.83;;;0.90;;
32200;SDS011;18701;45.588;5.288;2023-05-07T14:18:32;1.88;;;0.90;;
32200;SDS011;18701;45.588;5.288;2023-05-07T14:21:02;1.80;;;0.63;;
32200;SDS011;18701;45.588;5.288;2023-05-07T14:23:31;2.17;;;0.93;;
32200;SDS011;18701;45.588;5.288;2023-05-07T14:25:56;8.93;;;1.60;;
32200;SDS011;18701;45.588;5.288;2023-05-07T14:28:22;2.50;;;0.73;;
32200;SDS011;18701;45.588;5.288;2023-05-07T14:30:48;4.32;;;0.75;;
32200;SDS011;18701;45.588;5.288;2023-05-07T14:33:14;3.50;;;0.70;;
32200;SDS011;18701;45.588;5.288;2023-05-07T14:35:39;2.00;;;0.65;;
32200;SDS011;18701;45.588;5.288;2023-05-07T14:38:05;2.03;;;0.40;;
32200;SDS011;18701;45.588;5.288;2023-05-07T14:40:31;0.77;;;0.30;;
32200;SDS011;18701;45.588;5.288;2023-05-07T14:42:56;2.00;;;0.52;;
32200;SDS011;18701;45.588;5.288;2023-05-07T14:45:22;1.02;;;0.20;;
32200;SDS011;18701;45.588;5.288;2023-05-07T14:47:48;1.48;;;0.30;;
32200;SDS011;18701;45.588;5.288;2023-05-07T14:50:14;3.15;;;0.68;;
32200;SDS011;18701;45.588;5.288;2023-05-07T14:52:39;1.23;;;0.30;;
32200;SDS011;18701;45.588;5.288;2023-05-07T14:55:05;1.40;;;0.43;;